sensor_id;sensor_type;location;lat;lon;timestamp;pressure;altitude;pressure_sealevel;temperature;humidity
81397;BME280;70852;49.908;8.126;2023-07-13T00:02:07;100225.53;;;17.61;53.17
81397;BME280;70852;49.908;8.126;2023-07-13T00:04:35;100226.09;;;17.67;53.14
81397;BME280;70852;49.908;8.126;2023-07-13T00:07:01;100234.16;;;17.52;53.11
81397;BME280;70852;49.908;8.126;2023-07-13T00:09:28;100216.59;;;17.52;53.42
81397;BME280;70852;49.908;8.126;2023-07-13T00:11:56;100218.66;;;17.55;53.01
81397;BME280;70852;49.908;8.126;2023-07-13T00:14:24;100223.88;;;17.56;53.08
81397;BME280;70852;49.908;8.126;2023-07-13T00:16:50;100229.09;;;17.58;53.59
81397;BME280;70852;49.908;8.126;2023-07-13T00:19:16;100231.06;;;17.58;53.54
81397;BME280;70852;49.908;8.126;2023-07-13T00:21:41;100233.09;;;17.61;53.17
81397;BME280;70852;49.908;8.126;2023-07-13T00:24:08;100233.41;;;17.55;53.08
81397;BME280;70852;49.908;8.126;2023-07-13T00:26:38;100231.34;;;17.52;53.66
81397;BME280;70852;49.908;8.126;2023-07-13T00:29:06;100229.22;;;17.46;53.17
81397;BME280;70852;49.908;8.126;2023-07-13T00:31:35;100231.78;;;17.35;54.43
81397;BME280;70852;49.908;8.126;2023-07-13T00:34:01;100240.81;;;17.29;54.63
81397;BME280;70852;49.908;8.126;2023-07-13T00:36:26;100233.69;;;17.31;54.12
81397;BME280;70852;49.908;8.126;2023-07-13T00:38:54;100240.91;;;17.32;54.63
81397;BME280;70852;49.908;8.126;2023-07-13T00:41:20;100244.03;;;17.31;54.41
81397;BME280;70852;49.908;8.126;2023-07-13T00:43:45;100251.59;;;17.30;54.51
81397;BME280;70852;49.908;8.126;2023-07-13T00:48:42;100251.81;;;17.22;55.02
81397;BME280;70852;49.908;8.126;2023-07-13T00:51:10;100252.09;;;17.16;55.06
81397;BME280;70852;49.908;8.126;2023-07-13T00:53:38;100259.94;;;17.11;55.51
81397;BME280;70852;49.908;8.126;2023-07-13T00:56:04;100256.66;;;17.05;55.70
81397;BME280;70852;49.908;8.126;2023-07-13T00:58:33;100259.53;;;16.93;56.22
81397;BME280;70852;49.908;8.126;2023-07-13T01:01:01;100261.88;;;16.91;55.74
81397;BME280;70852;49.908;8.126;2023-07-13T01:03:26;100261.44;;;16.89;56.70
81397;BME280;70852;49.908;8.126;2023-07-13T01:05:52;100258.53;;;16.86;55.70
81397;BME280;70852;49.908;8.126;2023-07-13T01:08:19;100259.84;;;16.72;56.01
81397;BME280;70852;49.908;8.126;2023-07-13T01:10:54;100265.22;;;16.65;56.96
81397;BME280;70852;49.908;8.126;2023-07-13T01:13:20;100259.81;;;16.57;56.16
81397;BME280;70852;49.908;8.126;2023-07-13T01:15:47;100260.63;;;16.41;57.39
81397;BME280;70852;49.908;8.126;2023-07-13T01:18:17;100263.94;;;16.47;57.20
81397;BME280;70852;49.908;8.126;2023-07-13T01:20:59;100260.25;;;16.43;57.30
81397;BME280;70852;49.908;8.126;2023-07-13T01:23:25;100268.72;;;16.31;57.80
81397;BME280;70852;49.908;8.126;2023-07-13T01:25:52;100265.00;;;16.27;58.59
81397;BME280;70852;49.908;8.126;2023-07-13T01:28:21;100259.09;;;16.28;57.63
81397;BME280;70852;49.908;8.126;2023-07-13T01:30:49;100265.53;;;16.32;58.52
81397;BME280;70852;49.908;8.126;2023-07-13T01:33:17;100255.66;;;16.35;57.98
81397;BME280;70852;49.908;8.126;2023-07-13T01:35:46;100264.19;;;16.26;58.74
81397;BME280;70852;49.908;8.126;2023-07-13T01:38:15;100275.31;;;16.10;57.73
81397;BME280;70852;49.908;8.126;2023-07-13T01:40:43;100266.34;;;16.17;58.23
81397;BME280;70852;49.908;8.126;2023-07-13T01:43:11;100262.56;;;16.09;58.33
81397;BME280;70852;49.908;8.126;2023-07-13T01:45:38;100264.91;;;16.07;58.32
81397;BME280;70852;49.908;8.126;2023-07-13T01:48:06;100275.94;;;16.04;58.65
81397;BME280;70852;49.908;8.126;2023-07-13T01:50:32;100270.81;;;16.06;58.09
81397;BME280;70852;49.908;8.126;2023-07-13T01:52:57;100270.63;;;15.99;58.96
81397;BME280;70852;49.908;8.126;2023-07-13T01:55:25;100271.78;;;15.98;58.43
81397;BME280;70852;49.908;8.126;2023-07-13T01:57:50;100268.09;;;15.94;58.34
81397;BME280;70852;49.908;8.126;2023-07-13T02:00:16;100267.56;;;15.88;58.92
81397;BME280;70852;49.908;8.126;2023-07-13T02:02:41;100272.50;;;15.95;59.18
81397;BME280;70852;49.908;8.126;2023-07-13T02:05:07;100276.19;;;15.99;58.95
81397;BME280;70852;49.908;8.126;2023-07-13T02:07:32;100274.00;;;15.92;58.62
81397;BME280;70852;49.908;8.126;2023-07-13T02:10:03;100282.13;;;15.97;58.47
81397;BME280;70852;49.908;8.126;2023-07-13T02:12:29;100285.84;;;15.89;58.50
81397;BME280;70852;49.908;8.126;2023-07-13T02:14:54;100281.19;;;15.93;58.66
81397;BME280;70852;49.908;8.126;2023-07-13T02:17:24;100282.28;;;15.89;58.56
81397;BME280;70852;49.908;8.126;2023-07-13T02:19:55;100278.00;;;15.79;58.34
81397;BME280;70852;49.908;8.126;2023-07-13T02:22:21;100282.72;;;15.63;59.35
81397;BME280;70852;49.908;8.126;2023-07-13T02:24:46;100278.50;;;15.69;59.31
81397;BME280;70852;49.908;8.126;2023-07-13T02:27:12;100284.91;;;15.69;59.96
81397;BME280;70852;49.908;8.126;2023-07-13T02:29:42;100274.91;;;15.68;59.18
81397;BME280;70852;49.908;8.126;2023-07-13T02:32:08;100273.75;;;15.69;59.53
81397;BME280;70852;49.908;8.126;2023-07-13T02:34:36;100281.44;;;15.60;60.11
81397;BME280;70852;49.908;8.126;2023-07-13T02:37:06;100278.31;;;15.50;60.18
81397;BME280;70852;49.908;8.126;2023-07-13T02:39:32;100274.53;;;15.42;60.57
81397;BME280;70852;49.908;8.126;2023-07-13T02:41:58;100267.69;;;15.39;60.48
81397;BME280;70852;49.908;8.126;2023-07-13T02:44:23;100275.69;;;15.29;61.34
81397;BME280;70852;49.908;8.126;2023-07-13T02:46:49;100275.69;;;15.29;61.39
81397;BME280;70852;49.908;8.126;2023-07-13T02:49:14;100284.53;;;15.31;60.81
81397;BME280;70852;49.908;8.126;2023-07-13T02:51:39;100275.16;;;15.23;61.18
81397;BME280;70852;49.908;8.126;2023-07-13T02:54:05;100280.72;;;15.23;61.18
81397;BME280;70852;49.908;8.126;2023-07-13T02:56:32;100280.59;;;15.20;61.53
81397;BME280;70852;49.908;8.126;2023-07-13T02:59:00;100275.72;;;15.17;61.67
81397;BME280;70852;49.908;8.126;2023-07-13T03:01:26;100274.34;;;15.11;61.97
81397;BME280;70852;49.908;8.126;2023-07-13T03:03:51;100272.84;;;15.13;61.77
81397;BME280;70852;49.908;8.126;2023-07-13T03:06:20;100280.13;;;15.06;62.07
81397;BME280;70852;49.908;8.126;2023-07-13T03:08:53;100277.63;;;15.00;61.84
81397;BME280;70852;49.908;8.126;2023-07-13T03:11:20;100286.44;;;14.90;62.74
81397;BME280;70852;49.908;8.126;2023-07-13T03:13:46;100289.06;;;14.87;62.47
81397;BME280;70852;49.908;8.126;2023-07-13T03:16:14;100292.06;;;14.94;62.65
81397;BME280;70852;49.908;8.126;2023-07-13T03:18:43;100293.59;;;14.91;63.08
81397;BME280;70852;49.908;8.126;2023-07-13T03:21:11;100298.22;;;14.87;62.28
81397;BME280;70852;49.908;8.126;2023-07-13T03:23:36;100293.00;;;14.74;63.71
81397;BME280;70852;49.908;8.126;2023-07-13T03:26:16;100294.16;;;14.73;62.76
81397;BME280;70852;49.908;8.126;2023-07-13T03:28:42;100301.00;;;14.63;63.42
81397;BME280;70852;49.908;8.126;2023-07-13T03:31:14;100290.25;;;14.61;63.57
81397;BME280;70852;49.908;8.126;2023-07-13T03:33:39;100298.69;;;14.65;64.13
81397;BME280;70852;49.908;8.126;2023-07-13T03:36:06;100302.28;;;14.65;63.47
81397;BME280;70852;49.908;8.126;2023-07-13T03:38:32;100313.19;;;14.71;63.67
81397;BME280;70852;49.908;8.126;2023-07-13T03:40:58;100316.97;;;14.66;63.25
81397;BME280;70852;49.908;8.126;2023-07-13T03:43:26;100319.63;;;14.62;63.92
81397;BME280;70852;49.908;8.126;2023-07-13T03:45:54;100319.75;;;14.66;64.45
81397;BME280;70852;49.908;8.126;2023-07-13T03:48:22;100323.13;;;14.59;64.72
81397;BME280;70852;49.908;8.126;2023-07-13T03:50:48;100318.25;;;14.56;63.86
81397;BME280;70852;49.908;8.126;2023-07-13T03:53:21;100325.44;;;14.57;63.83
81397;BME280;70852;49.908;8.126;2023-07-13T03:55:46;100326.00;;;14.51;64.25
81397;BME280;70852;49.908;8.126;2023-07-13T04:00:54;100333.78;;;14.57;63.59
81397;BME280;70852;49.908;8.126;2023-07-13T04:03:22;100341.97;;;14.54;64.24
81397;BME280;70852;49.908;8.126;2023-07-13T04:05:47;100337.84;;;14.60;64.56
81397;BME280;70852;49.908;8.126;2023-07-13T04:08:15;100325.19;;;14.62;64.63
81397;BME280;70852;49.908;8.126;2023-07-13T04:10:43;100330.53;;;14.55;64.43
81397;BME280;70852;49.908;8.126;2023-07-13T04:13:11;100334.94;;;14.69;64.13
81397;BME280;70852;49.908;8.126;2023-07-13T04:15:38;100346.53;;;14.71;64.76
81397;BME280;70852;49.908;8.126;2023-07-13T04:18:03;100335.84;;;14.73;64.89
81397;BME280;70852;49.908;8.126;2023-07-13T04:20:33;100335.31;;;14.91;63.85
81397;BME280;70852;49.908;8.126;2023-07-13T04:23:01;100348.75;;;14.89;64.35
81397;BME280;70852;49.908;8.126;2023-07-13T04:25:27;100337.97;;;15.00;64.08
81397;BME280;70852;49.908;8.126;2023-07-13T04:27:53;100337.84;;;14.96;64.56
81397;BME280;70852;49.908;8.126;2023-07-13T04:30:21;100341.91;;;15.11;63.90
81397;BME280;70852;49.908;8.126;2023-07-13T04:32:46;100341.56;;;15.13;63.83
81397;BME280;70852;49.908;8.126;2023-07-13T04:35:15;100338.31;;;15.35;64.35
81397;BME280;70852;49.908;8.126;2023-07-13T04:37:43;100340.03;;;15.39;62.83
81397;BME280;70852;49.908;8.126;2023-07-13T04:40:08;100340.16;;;15.43;62.65
81397;BME280;70852;49.908;8.126;2023-07-13T04:42:39;100347.56;;;15.51;61.96
81397;BME280;70852;49.908;8.126;2023-07-13T04:45:06;100342.59;;;15.57;61.39
81397;BME280;70852;49.908;8.126;2023-07-13T04:47:32;100339.72;;;15.81;61.40
81397;BME280;70852;49.908;8.126;2023-07-13T04:50:00;100331.84;;;15.83;60.88
81397;BME280;70852;49.908;8.126;2023-07-13T04:52:25;100344.81;;;15.91;60.85
81397;BME280;70852;49.908;8.126;2023-07-13T04:54:53;100341.28;;;16.06;60.64
81397;BME280;70852;49.908;8.126;2023-07-13T04:57:19;100346.50;;;16.08;60.54
81397;BME280;70852;49.908;8.126;2023-07-13T04:59:44;100344.38;;;16.17;59.80
81397;BME280;70852;49.908;8.126;2023-07-13T05:02:10;100345.47;;;16.28;59.35
81397;BME280;70852;49.908;8.126;2023-07-13T05:04:35;100343.69;;;16.36;59.37
81397;BME280;70852;49.908;8.126;2023-07-13T05:07:03;100338.28;;;16.43;58.98
81397;BME280;70852;49.908;8.126;2023-07-13T05:09:28;100345.94;;;16.46;59.37
81397;BME280;70852;49.908;8.126;2023-07-13T05:11:53;100352.91;;;16.24;59.19
81397;BME280;70852;49.908;8.126;2023-07-13T05:14:19;100348.78;;;16.34;60.48
81397;BME280;70852;49.908;8.126;2023-07-13T05:16:44;100352.22;;;16.43;60.28
81397;BME280;70852;49.908;8.126;2023-07-13T05:19:10;100357.16;;;16.62;59.41
81397;BME280;70852;49.908;8.126;2023-07-13T05:21:38;100357.00;;;16.70;59.40
81397;BME280;70852;49.908;8.126;2023-07-13T05:24:08;100354.44;;;16.65;58.40
81397;BME280;70852;49.908;8.126;2023-07-13T05:26:33;100360.94;;;16.69;58.16
81397;BME280;70852;49.908;8.126;2023-07-13T05:29:02;100358.88;;;16.82;59.27
81397;BME280;70852;49.908;8.126;2023-07-13T05:31:30;100358.69;;;16.91;58.67
81397;BME280;70852;49.908;8.126;2023-07-13T05:33:58;100359.88;;;17.05;57.46
81397;BME280;70852;49.908;8.126;2023-07-13T05:36:23;100361.56;;;17.26;57.24
81397;BME280;70852;49.908;8.126;2023-07-13T05:38:51;100361.81;;;17.36;57.32
81397;BME280;70852;49.908;8.126;2023-07-13T05:41:21;100358.28;;;17.39;57.40
81397;BME280;70852;49.908;8.126;2023-07-13T05:43:46;100368.25;;;17.56;56.02
81397;BME280;70852;49.908;8.126;2023-07-13T05:46:14;100365.78;;;17.70;55.33
81397;BME280;70852;49.908;8.126;2023-07-13T05:48:42;100368.41;;;17.79;57.26
81397;BME280;70852;49.908;8.126;2023-07-13T05:51:07;100362.28;;;17.92;55.39
81397;BME280;70852;49.908;8.126;2023-07-13T05:53:36;100367.59;;;17.98;55.72
81397;BME280;70852;49.908;8.126;2023-07-13T05:56:02;100364.56;;;18.25;53.64
81397;BME280;70852;49.908;8.126;2023-07-13T05:58:27;100370.75;;;18.35;54.18
81397;BME280;70852;49.908;8.126;2023-07-13T06:03:29;100367.44;;;18.29;52.11
81397;BME280;70852;49.908;8.126;2023-07-13T06:05:57;100360.88;;;18.60;52.37
81397;BME280;70852;49.908;8.126;2023-07-13T06:08:24;100362.06;;;18.59;51.34
81397;BME280;70852;49.908;8.126;2023-07-13T06:10:49;100358.72;;;18.73;50.17
81397;BME280;70852;49.908;8.126;2023-07-13T06:13:20;100367.25;;;18.80;50.38
81397;BME280;70852;49.908;8.126;2023-07-13T06:15:49;100367.53;;;18.97;50.02
81397;BME280;70852;49.908;8.126;2023-07-13T06:18:19;100370.31;;;19.20;50.54
81397;BME280;70852;49.908;8.126;2023-07-13T06:20:52;100379.44;;;19.40;49.96
81397;BME280;70852;49.908;8.126;2023-07-13T06:23:17;100377.69;;;19.55;48.83
81397;BME280;70852;49.908;8.126;2023-07-13T06:25:45;100370.03;;;19.78;47.41
81397;BME280;70852;49.908;8.126;2023-07-13T06:28:15;100377.19;;;19.76;47.16
81397;BME280;70852;49.908;8.126;2023-07-13T06:30:45;100382.19;;;19.89;47.35
81397;BME280;70852;49.908;8.126;2023-07-13T06:33:13;100374.38;;;20.02;46.28
81397;BME280;70852;49.908;8.126;2023-07-13T06:35:43;100379.13;;;20.31;46.35
81397;BME280;70852;49.908;8.126;2023-07-13T06:38:10;100377.72;;;20.85;43.87
81397;BME280;70852;49.908;8.126;2023-07-13T06:40:35;100375.28;;;21.24;43.38
81397;BME280;70852;49.908;8.126;2023-07-13T06:43:01;100373.84;;;21.00;44.34
81397;BME280;70852;49.908;8.126;2023-07-13T06:45:29;100383.16;;;21.08;45.12
81397;BME280;70852;49.908;8.126;2023-07-13T06:47:54;100378.38;;;21.60;42.75
81397;BME280;70852;49.908;8.126;2023-07-13T06:50:20;100378.63;;;22.06;42.86
81397;BME280;70852;49.908;8.126;2023-07-13T06:52:50;100384.75;;;22.22;40.97
81397;BME280;70852;49.908;8.126;2023-07-13T06:55:15;100383.91;;;22.18;40.90
81397;BME280;70852;49.908;8.126;2023-07-13T06:57:41;100384.88;;;22.64;40.61
81397;BME280;70852;49.908;8.126;2023-07-13T07:00:11;100386.59;;;23.08;38.08
81397;BME280;70852;49.908;8.126;2023-07-13T07:02:37;100378.13;;;23.12;38.18
81397;BME280;70852;49.908;8.126;2023-07-13T07:05:02;100386.56;;;22.83;37.57
81397;BME280;70852;49.908;8.126;2023-07-13T07:07:32;100383.34;;;23.03;37.63
81397;BME280;70852;49.908;8.126;2023-07-13T07:10:02;100384.47;;;24.01;37.34
81397;BME280;70852;49.908;8.126;2023-07-13T07:12:28;100399.75;;;24.11;36.26
81397;BME280;70852;49.908;8.126;2023-07-13T07:14:56;100400.56;;;24.07;35.95
81397;BME280;70852;49.908;8.126;2023-07-13T07:17:21;100396.31;;;24.65;35.24
81397;BME280;70852;49.908;8.126;2023-07-13T07:19:46;100400.53;;;25.02;34.77
81397;BME280;70852;49.908;8.126;2023-07-13T07:22:12;100404.34;;;24.70;34.93
81397;BME280;70852;49.908;8.126;2023-07-13T07:24:39;100406.88;;;24.54;35.31
81397;BME280;70852;49.908;8.126;2023-07-13T07:27:07;100405.03;;;24.96;34.31
81397;BME280;70852;49.908;8.126;2023-07-13T07:29:32;100407.16;;;25.33;34.36
81397;BME280;70852;49.908;8.126;2023-07-13T07:32:00;100408.91;;;25.16;32.61
81397;BME280;70852;49.908;8.126;2023-07-13T07:34:25;100405.81;;;25.00;33.59
81397;BME280;70852;49.908;8.126;2023-07-13T07:36:54;100412.03;;;25.29;32.65
81397;BME280;70852;49.908;8.126;2023-07-13T07:39:19;100409.88;;;24.95;32.60
81397;BME280;70852;49.908;8.126;2023-07-13T07:41:44;100405.69;;;25.17;32.78
81397;BME280;70852;49.908;8.126;2023-07-13T07:44:15;100406.06;;;25.20;32.29
81397;BME280;70852;49.908;8.126;2023-07-13T07:46:40;100400.88;;;25.56;32.26
81397;BME280;70852;49.908;8.126;2023-07-13T07:49:10;100406.00;;;26.46;30.94
81397;BME280;70852;49.908;8.126;2023-07-13T07:51:40;100408.09;;;26.05;31.25
81397;BME280;70852;49.908;8.126;2023-07-13T07:54:06;100408.63;;;25.51;31.70
81397;BME280;70852;49.908;8.126;2023-07-13T07:56:34;100409.56;;;25.34;32.40
81397;BME280;70852;49.908;8.126;2023-07-13T07:59:02;100415.50;;;25.95;31.81
81397;BME280;70852;49.908;8.126;2023-07-13T08:01:27;100418.28;;;25.54;31.80
81397;BME280;70852;49.908;8.126;2023-07-13T08:03:54;100416.16;;;25.17;32.23
81397;BME280;70852;49.908;8.126;2023-07-13T08:06:22;100417.47;;;25.53;32.30
81397;BME280;70852;49.908;8.126;2023-07-13T08:08:48;100417.78;;;25.18;32.60
81397;BME280;70852;49.908;8.126;2023-07-13T08:11:13;100418.28;;;24.26;33.44
81397;BME280;70852;49.908;8.126;2023-07-13T08:13:38;100423.91;;;24.29;33.91
81397;BME280;70852;49.908;8.126;2023-07-13T08:16:09;100410.63;;;24.12;33.50
81397;BME280;70852;49.908;8.126;2023-07-13T08:18:39;100410.91;;;24.53;33.22
81397;BME280;70852;49.908;8.126;2023-07-13T08:21:05;100413.16;;;24.79;33.16
81397;BME280;70852;49.908;8.126;2023-07-13T08:23:34;100416.56;;;25.19;32.10
81397;BME280;70852;49.908;8.126;2023-07-13T08:26:00;100426.06;;;24.80;31.87
81397;BME280;70852;49.908;8.126;2023-07-13T08:28:29;100414.00;;;24.76;32.30
81397;BME280;70852;49.908;8.126;2023-07-13T08:31:02;100415.94;;;25.45;31.73
81397;BME280;70852;49.908;8.126;2023-07-13T08:33:30;100414.63;;;25.53;31.75
81397;BME280;70852;49.908;8.126;2023-07-13T08:35:58;100415.03;;;25.56;32.50
81397;BME280;70852;49.908;8.126;2023-07-13T08:38:23;100412.19;;;25.56;32.34
81397;BME280;70852;49.908;8.126;2023-07-13T08:40:53;100414.81;;;25.80;31.39
81397;BME280;70852;49.908;8.126;2023-07-13T08:43:25;100409.50;;;25.86;30.78
81397;BME280;70852;49.908;8.126;2023-07-13T08:46:05;100411.78;;;25.61;30.62
81397;BME280;70852;49.908;8.126;2023-07-13T08:48:43;100406.13;;;25.61;31.00
81397;BME280;70852;49.908;8.126;2023-07-13T08:53:55;100404.50;;;25.63;30.71
81397;BME280;70852;49.908;8.126;2023-07-13T08:56:25;100410.66;;;25.92;30.52
81397;BME280;70852;49.908;8.126;2023-07-13T08:59:17;100410.44;;;26.78;30.45
81397;BME280;70852;49.908;8.126;2023-07-13T09:04:27;100402.81;;;26.41;29.12
81397;BME280;70852;49.908;8.126;2023-07-13T09:07:05;100400.28;;;26.50;28.28
81397;BME280;70852;49.908;8.126;2023-07-13T09:09:55;100403.69;;;26.38;28.51
81397;BME280;70852;49.908;8.126;2023-07-13T09:15:02;100408.34;;;26.17;29.14
81397;BME280;70852;49.908;8.126;2023-07-13T09:17:36;100400.84;;;26.99;27.44
81397;BME280;70852;49.908;8.126;2023-07-13T09:22:46;100408.34;;;26.51;28.31
81397;BME280;70852;49.908;8.126;2023-07-13T09:27:53;100410.22;;;26.31;27.86
81397;BME280;70852;49.908;8.126;2023-07-13T09:30:34;100405.03;;;26.26;27.97
81397;BME280;70852;49.908;8.126;2023-07-13T09:33:01;100403.97;;;26.47;28.08
81397;BME280;70852;49.908;8.126;2023-07-13T09:35:29;100398.91;;;26.61;27.44
81397;BME280;70852;49.908;8.126;2023-07-13T09:38:16;100399.81;;;26.82;27.28
81397;BME280;70852;49.908;8.126;2023-07-13T09:41:08;100406.25;;;26.59;27.29
81397;BME280;70852;49.908;8.126;2023-07-13T09:44:00;100405.78;;;26.30;27.47
81397;BME280;70852;49.908;8.126;2023-07-13T09:46:26;100407.13;;;27.10;27.61
81397;BME280;70852;49.908;8.126;2023-07-13T09:48:53;100411.53;;;26.84;26.40
81397;BME280;70852;49.908;8.126;2023-07-13T09:51:23;100406.94;;;26.97;26.47
81397;BME280;70852;49.908;8.126;2023-07-13T09:53:50;100401.78;;;26.88;27.29
81397;BME280;70852;49.908;8.126;2023-07-13T09:56:36;100400.88;;;27.68;26.37
81397;BME280;70852;49.908;8.126;2023-07-13T09:59:18;100395.34;;;28.44;25.58
81397;BME280;70852;49.908;8.126;2023-07-13T10:01:44;100406.25;;;27.13;26.42
81397;BME280;70852;49.908;8.126;2023-07-13T10:04:17;100404.72;;;27.58;25.65
81397;BME280;70852;49.908;8.126;2023-07-13T10:06:45;100399.69;;;26.92;26.20
81397;BME280;70852;49.908;8.126;2023-07-13T10:09:15;100402.63;;;27.12;26.14
81397;BME280;70852;49.908;8.126;2023-07-13T10:11:46;100391.88;;;27.74;26.01
81397;BME280;70852;49.908;8.126;2023-07-13T10:14:21;100387.66;;;28.25;24.98
81397;BME280;70852;49.908;8.126;2023-07-13T10:16:58;100389.69;;;28.24;24.83
81397;BME280;70852;49.908;8.126;2023-07-13T10:19:29;100389.44;;;28.15;24.82
81397;BME280;70852;49.908;8.126;2023-07-13T10:22:09;100385.16;;;28.07;24.18
81397;BME280;70852;49.908;8.126;2023-07-13T10:24:39;100386.31;;;28.29;24.55
81397;BME280;70852;49.908;8.126;2023-07-13T10:27:19;100387.81;;;28.18;24.75
81397;BME280;70852;49.908;8.126;2023-07-13T10:32:13;100380.13;;;28.90;23.78
81397;BME280;70852;49.908;8.126;2023-07-13T10:34:43;100391.59;;;28.87;23.17
81397;BME280;70852;49.908;8.126;2023-07-13T10:37:23;100392.53;;;27.11;25.63
81397;BME280;70852;49.908;8.126;2023-07-13T10:39:52;100381.06;;;27.88;25.08
81397;BME280;70852;49.908;8.126;2023-07-13T10:42:39;100381.47;;;28.66;24.46
81397;BME280;70852;49.908;8.126;2023-07-13T10:45:14;100385.84;;;29.06;23.60
81397;BME280;70852;49.908;8.126;2023-07-13T10:47:42;100386.44;;;28.82;23.26
81397;BME280;70852;49.908;8.126;2023-07-13T10:50:21;100385.47;;;28.32;24.59
81397;BME280;70852;49.908;8.126;2023-07-13T10:52:49;100394.41;;;26.94;25.86
81397;BME280;70852;49.908;8.126;2023-07-13T10:55:38;100386.56;;;27.52;25.19
81397;BME280;70852;49.908;8.126;2023-07-13T10:58:24;100389.94;;;28.69;23.56
81397;BME280;70852;49.908;8.126;2023-07-13T11:03:31;100382.06;;;27.31;25.79
81397;BME280;70852;49.908;8.126;2023-07-13T11:06:11;100382.88;;;28.58;23.86
81397;BME280;70852;49.908;8.126;2023-07-13T11:08:54;100377.75;;;28.69;23.84
81397;BME280;70852;49.908;8.126;2023-07-13T11:11:35;100391.50;;;29.88;22.88
81397;BME280;70852;49.908;8.126;2023-07-13T11:14:25;100389.31;;;28.42;23.38
81397;BME280;70852;49.908;8.126;2023-07-13T11:16:52;100390.53;;;27.58;24.61
81397;BME280;70852;49.908;8.126;2023-07-13T11:22:11;100392.59;;;26.50;26.72
81397;BME280;70852;49.908;8.126;2023-07-13T11:24:56;100397.94;;;26.72;27.13
81397;BME280;70852;49.908;8.126;2023-07-13T11:27:43;100393.94;;;27.00;25.99
81397;BME280;70852;49.908;8.126;2023-07-13T11:32:51;100395.63;;;26.93;25.49
81397;BME280;70852;49.908;8.126;2023-07-13T11:35:23;100395.16;;;26.99;25.37
81397;BME280;70852;49.908;8.126;2023-07-13T11:37:53;100393.19;;;26.65;26.20
81397;BME280;70852;49.908;8.126;2023-07-13T11:40:25;100389.97;;;26.36;26.65
81397;BME280;70852;49.908;8.126;2023-07-13T11:42:59;100391.34;;;26.51;26.96
81397;BME280;70852;49.908;8.126;2023-07-13T11:45:35;100384.66;;;26.69;27.08
81397;BME280;70852;49.908;8.126;2023-07-13T11:48:01;100385.50;;;28.09;24.31
81397;BME280;70852;49.908;8.126;2023-07-13T11:50:32;100381.81;;;28.32;23.36
81397;BME280;70852;49.908;8.126;2023-07-13T11:53:02;100388.13;;;28.00;24.06
81397;BME280;70852;49.908;8.126;2023-07-13T11:55:29;100390.53;;;27.58;25.07
81397;BME280;70852;49.908;8.126;2023-07-13T11:57:58;100390.69;;;27.01;25.70
81397;BME280;70852;49.908;8.126;2023-07-13T12:00:29;100387.09;;;26.97;26.08
81397;BME280;70852;49.908;8.126;2023-07-13T12:03:02;100384.72;;;27.19;26.11
81397;BME280;70852;49.908;8.126;2023-07-13T12:05:32;100396.28;;;27.05;26.37
81397;BME280;70852;49.908;8.126;2023-07-13T12:08:08;100389.75;;;27.08;26.05
81397;BME280;70852;49.908;8.126;2023-07-13T12:10:39;100393.13;;;26.99;26.23
81397;BME280;70852;49.908;8.126;2023-07-13T12:13:08;100396.16;;;26.85;25.88
81397;BME280;70852;49.908;8.126;2023-07-13T12:18:21;100400.13;;;26.60;26.27
81397;BME280;70852;49.908;8.126;2023-07-13T12:20:48;100385.03;;;27.48;25.62
81397;BME280;70852;49.908;8.126;2023-07-13T12:25:52;100395.28;;;28.48;23.61
81397;BME280;70852;49.908;8.126;2023-07-13T12:31:03;100396.47;;;27.17;25.69
81397;BME280;70852;49.908;8.126;2023-07-13T12:33:33;100398.22;;;27.34;25.74
81397;BME280;70852;49.908;8.126;2023-07-13T12:36:05;100401.31;;;26.93;26.23
81397;BME280;70852;49.908;8.126;2023-07-13T12:38:32;100395.63;;;26.93;26.77
81397;BME280;70852;49.908;8.126;2023-07-13T12:41:02;100406.47;;;27.25;26.43
81397;BME280;70852;49.908;8.126;2023-07-13T12:43:34;100410.13;;;26.99;26.00
81397;BME280;70852;49.908;8.126;2023-07-13T12:48:41;100409.38;;;26.65;27.02
81397;BME280;70852;49.908;8.126;2023-07-13T12:51:12;100413.13;;;26.58;27.52
81397;BME280;70852;49.908;8.126;2023-07-13T12:53:56;100419.81;;;26.41;26.83
81397;BME280;70852;49.908;8.126;2023-07-13T12:56:24;100421.56;;;25.94;27.65
81397;BME280;70852;49.908;8.126;2023-07-13T12:58:58;100413.19;;;25.83;27.79
81397;BME280;70852;49.908;8.126;2023-07-13T13:01:29;100424.03;;;25.88;27.71
81397;BME280;70852;49.908;8.126;2023-07-13T13:04:01;100417.63;;;25.84;27.47
81397;BME280;70852;49.908;8.126;2023-07-13T13:06:32;100414.09;;;26.10;27.79
81397;BME280;70852;49.908;8.126;2023-07-13T13:09:03;100417.53;;;26.29;26.95
81397;BME280;70852;49.908;8.126;2023-07-13T13:11:40;100410.06;;;26.08;27.13
81397;BME280;70852;49.908;8.126;2023-07-13T13:14:06;100417.25;;;25.82;27.72
81397;BME280;70852;49.908;8.126;2023-07-13T13:16:37;100414.13;;;26.07;27.88
81397;BME280;70852;49.908;8.126;2023-07-13T13:19:28;100421.94;;;26.33;27.29
81397;BME280;70852;49.908;8.126;2023-07-13T13:21:56;100414.09;;;26.48;27.20
81397;BME280;70852;49.908;8.126;2023-07-13T13:24:28;100420.09;;;26.50;27.58
81397;BME280;70852;49.908;8.126;2023-07-13T13:26:54;100416.94;;;26.44;27.29
81397;BME280;70852;49.908;8.126;2023-07-13T13:29:23;100419.69;;;26.51;27.54
81397;BME280;70852;49.908;8.126;2023-07-13T13:32:13;100419.94;;;26.30;27.40
81397;BME280;70852;49.908;8.126;2023-07-13T13:34:38;100412.88;;;26.11;27.84
81397;BME280;70852;49.908;8.126;2023-07-13T13:37:08;100418.38;;;26.25;28.13
81397;BME280;70852;49.908;8.126;2023-07-13T13:39:36;100422.41;;;26.28;27.37
81397;BME280;70852;49.908;8.126;2023-07-13T13:42:02;100411.69;;;26.73;26.57
81397;BME280;70852;49.908;8.126;2023-07-13T13:44:27;100411.84;;;27.20;26.33